Hestrud (Nord, France) - 208 m
Donnes mto: Actuelle samedi, 16/02/2019 14:05
Date Horaire Temp Out Temp. E. min Temp. E. max Temp. Sol 1 Hum Out Hum. Sol 1 Press Rain Wind Dir Dir Solar Ev.Tr. UV Hi Solar Rad Dew Point Windchill Wind (Gust)
16/02/2019 14:05 14,1 C 14,1 C 14,1 C 11,7 C 50 % 135 cb 1025,8 hPa 0,0 mm 14,5 km/h (3 Bft) S-SO 202 60 min 0,279 mm 1,6 UV-I 417 W/m 3,8 C 10,3 C 22,5 km/h (4 Bft)
16/02/2019 13:05 13,3 C 13,3 C 13,3 C 11,1 C 57 % 134 cb 1026,2 hPa 0,0 mm 11,3 km/h (2 Bft) S-SO 202 60 min 0,279 mm 1,8 UV-I 445 W/m 5,0 C 10,6 C 16,1 km/h (3 Bft)
16/02/2019 12:05 12,6 C 12,6 C 12,6 C 10,6 C 56 % 133 cb 1026,7 hPa 0,0 mm 14,5 km/h (3 Bft) SO 225 60 min 0,229 mm 1,7 UV-I 438 W/m 4,1 C 8,5 C 20,9 km/h (4 Bft)
16/02/2019 11:05 10,0 C 9,9 C 10,0 C 8,3 C 68 % 131 cb 1026,3 hPa 0,0 mm 9,7 km/h (2 Bft) S-SO 202 60 min 0,152 mm 1,3 UV-I 369 W/m 4,4 C 7,8 C 11,3 km/h (2 Bft)
16/02/2019 10:05 7,6 C 7,6 C 7,6 C 8,3 C 73 % 137 cb 1026,2 hPa 0,0 mm 8,0 km/h (2 Bft) SE 135 37 min 0,076 mm 0,8 UV-I 262 W/m 3,1 C 6,3 C 11,3 km/h (2 Bft)
16/02/2019 09:05 4,7 C 4,7 C 4,7 C 5,0 C 81 % 132 cb 1026,4 hPa 0,0 mm 3,2 km/h (1 Bft) S-SO 202 0 min 0,025 mm 0,0 UV-I 81 W/m 1,7 C 4,7 C 6,4 km/h (2 Bft)
16/02/2019 08:05 3,8 C 3,8 C 3,9 C 2,2 C 79 % 125 cb 1026,0 hPa 0,0 mm 0,0 km/h (0 Bft) N 0 0 min 0,000 mm 0,0 UV-I 9 W/m 0,5 C 3,8 C 0,0 km/h (0 Bft)
16/02/2019 07:05 4,4 C 4,4 C 4,4 C 2,8 C 78 % 126 cb 1025,5 hPa 0,0 mm 0,0 km/h (0 Bft) N 0 0 min 0,025 mm 0,0 UV-I 0 W/m 0,9 C 4,4 C 0,0 km/h (0 Bft)
16/02/2019 06:05 5,0 C 5,0 C 5,1 C 3,3 C 77 % 126 cb 1025,6 hPa 0,0 mm 4,8 km/h (1 Bft) S 180 0 min 0,025 mm 0,0 UV-I 0 W/m 1,3 C 5,0 C 8,0 km/h (2 Bft)
16/02/2019 05:05 5,2 C 5,2 C 5,2 C 3,9 C 77 % 126 cb 1025,5 hPa 0,0 mm 6,4 km/h (2 Bft) S 180 0 min 0,025 mm 0,0 UV-I 0 W/m 1,5 C 5,2 C 11,3 km/h (2 Bft)
16/02/2019 04:05 3,7 C 3,7 C 3,7 C 0,6 C 80 % 119 cb 1025,6 hPa 0,0 mm 0,0 km/h (0 Bft) N 0 0 min 0,025 mm 0,0 UV-I 0 W/m 0,6 C 3,7 C 0,0 km/h (0 Bft)
16/02/2019 03:05 6,0 C 6,0 C 6,0 C 3,9 C 74 % 124 cb 1025,9 hPa 0,0 mm 0,0 km/h (0 Bft) N 0 0 min 0,025 mm 0,0 UV-I 0 W/m 1,7 C 6,0 C 0,0 km/h (0 Bft)
16/02/2019 02:05 6,3 C 6,3 C 6,3 C 3,9 C 73 % 122 cb 1026,1 hPa 0,0 mm 6,4 km/h (2 Bft) S 180 0 min 0,025 mm 0,0 UV-I 0 W/m 1,8 C 6,3 C 11,3 km/h (2 Bft)
16/02/2019 01:05 6,8 C 6,8 C 6,8 C 5,0 C 72 % 124 cb 1026,1 hPa 0,0 mm 6,4 km/h (2 Bft) S-SE 157 0 min 0,025 mm 0,0 UV-I 0 W/m 2,1 C 6,8 C 9,7 km/h (2 Bft)
16/02/2019 00:05 7,4 C 7,4 C 7,4 C 5,6 C 69 % 123 cb 1026,3 hPa 0,0 mm 4,8 km/h (1 Bft) S-SO 202 0 min 0,025 mm 0,0 UV-I 0 W/m 2,1 C 7,4 C 6,4 km/h (2 Bft)
15/02/2019 23:05 7,4 C 7,4 C 7,5 C 5,0 C 68 % 121 cb 1026,3 hPa 0,0 mm 4,8 km/h (1 Bft) S-SE 157 0 min 0,025 mm 0,0 UV-I 0 W/m 1,9 C 7,4 C 6,4 km/h (2 Bft)
15/02/2019 22:05 7,9 C 7,9 C 7,9 C 6,1 C 67 % 121 cb 1026,7 hPa 0,0 mm 4,8 km/h (1 Bft) S-SE 157 0 min 0,025 mm 0,0 UV-I 0 W/m 2,2 C 7,9 C 9,7 km/h (2 Bft)
15/02/2019 21:05 8,5 C 8,4 C 8,5 C 6,1 C 64 % 118 cb 1026,9 hPa 0,0 mm 4,8 km/h (1 Bft) SE 135 0 min 0,025 mm 0,0 UV-I 0 W/m 2,1 C 8,5 C 8,0 km/h (2 Bft)
15/02/2019 20:05 8,9 C 8,9 C 8,9 C 6,1 C 63 % 115 cb 1027,2 hPa 0,0 mm 6,4 km/h (2 Bft) S 180 0 min 0,025 mm 0,0 UV-I 0 W/m 2,2 C 8,9 C 8,0 km/h (2 Bft)
15/02/2019 19:05 10,4 C 10,4 C 10,4 C 7,2 C 58 % 114 cb 1027,4 hPa 0,0 mm 3,2 km/h (1 Bft) S-SE 157 0 min 0,025 mm 0,0 UV-I 0 W/m 2,5 C 10,4 C 4,8 km/h (1 Bft)
15/02/2019 18:05 12,5 C 12,5 C 12,6 C 8,9 C 49 % 113 cb 1027,4 hPa 0,0 mm 4,8 km/h (1 Bft) S-SO 202 0 min 0,051 mm 0,0 UV-I 0 W/m 2,1 C 12,5 C 6,4 km/h (2 Bft)
15/02/2019 17:05 15,6 C 15,6 C 15,6 C 11,1 C 42 % 114 cb 1027,4 hPa 0,0 mm 1,6 km/h (1 Bft) SO 225 23 min 0,127 mm 0,0 UV-I 57 W/m 2,7 C 15,6 C 3,2 km/h (1 Bft)
15/02/2019 16:05 15,9 C 15,9 C 15,9 C 12,2 C 40 % 113 cb 1027,8 hPa 0,0 mm 6,4 km/h (2 Bft) S-SO 202 60 min 0,229 mm 0,5 UV-I 216 W/m 2,3 C 15,9 C 9,7 km/h (2 Bft)
15/02/2019 15:05 16,3 C 16,3 C 16,3 C 12,2 C 38 % 111 cb 1028,3 hPa 0,0 mm 9,7 km/h (2 Bft) S-SE 157 5 min 0,279 mm 1,1 UV-I 343 W/m 2,0 C 14,7 C 11,3 km/h (2 Bft)
15/02/2019 15:00 16,3 C 16,3 C 16,3 C 12,2 C 38 % 111 cb 1028,4 hPa 0,0 mm 6,4 km/h (2 Bft) SE 135 0 min 0,279 mm 1,1 UV-I 352 W/m 2,0 C 16,3 C 9,7 km/h (2 Bft)
_ Min-Heure 04:19 04:19 04:20 03:54 15:03 15:00 06:25 - 16:46 - - - - - - 03:50 09:16 16:47
Minimum _ 3,3 C 3,3 C 3,3 C 0,6 C 37 % 111 cb 1025,3 hPa - 0,0 km/h (0 Bft) - - - - - - 0,2 C 0,6 C 0,0 km/h (0 Bft)
_ Max-Heure 15:02 15:02 15:02 15:11 04:31 09:55 15:00 15:00 11:59 - - 15:00 15:00 12:16 12:41 13:16 15:03 13:27
Maximum _ 16,4 C 16,4 C 16,4 C 12,8 C 84 % 138 cb 1028,4 hPa 0,0 mm 16,1 km/h
SO (3 Bft)
- - 1 min 0,279 mm 1,8 UV-I 457 W/m 5,5 C 16,4 C 24,1 km/h
SO (4 Bft)
Moyenne _ 9,3 C 9,3 C 9,3 C 6,9 C 63 % 122 cb 1026,6 hPa #0,0 mm 5,3 km/h (1 Bft) S - #4:37 h #1,240 mm 1,4 UV-I 125 W/m 2,2 C 8,6 C 8,3 km/h (2 Bft)